• Join FlightAware (Why Join?)
  • Login
  • US Flag 
12:43PM EDT


 

Airport Tracker/Info


-or-


 

Live Flight TrackerFlight Track Log ✈ RPA3446 ✈ 27-Jun-2014 ✈ KPHL - KBGR

Flight Track Log - Related Links

Times and Time Zones

All times are in EDT time to prevent confusion due to time zone crossing. See the RPA3446 flight status page for this flight to view local times or setup timezone preferences in your user account.

Time Position Orientation Groundspeed Altitude Reporting Facility
EDT Latitude Longitude Course Direction KTS MPH feet Rate Location/Type
09:33PM 39.8833 -75.2167 75° East 154 177 800  Level Philadelphia TRACON
09:36PM 39.8167 -74.8789 90° East  Level FlightAware Approximate
09:36PM 39.8472 -75.0186 103° East 252 290 5,900  Level New York Center
09:37PM 39.7952 -74.7589 105° East  Level FlightAware Approximate
09:37PM 39.8317 -74.9311 103° East 274 315 8,600  Level New York Center
09:38PM 39.7954 -74.6394 75° East  Level FlightAware Approximate
09:38PM 39.8125 -74.8244 103° East 287 330 11,000  Level New York Center
09:39PM 39.7939 -74.6964 101° East 307 353 12,000 480 Climbing New York Center
09:40PM 39.8058 -74.5864 82° East 331 381 12,000 480 Level New York Center
09:41PM 39.8158 -74.4708 84° East 326 375 13,000 1,440 Climbing New York Center
09:43PM 39.8769 -74.2461 70° East 333 383 16,300 1,740 Climbing Boston Center
09:44PM 39.9339 -74.1447 54° Northeast 344 396 18,200 1,920 Climbing Boston Center
09:45PM 39.9922 -74.0381 54° Northeast 358 412 20,300 1,860 Climbing Boston Center
09:46PM 40.0525 -73.9294 54° Northeast 368 423 22,100 1,680 Climbing Boston Center
09:47PM 40.1153 -73.8158 54° Northeast 382 440 23,800 1,560 Climbing Boston Center
09:48PM 40.1806 -73.6983 54° Northeast 397 457 25,300 1,440 Climbing Boston Center
09:49PM 40.2622 -73.6028 42° Northeast 392 451 26,800 1,380 Climbing Boston Center
09:50PM 40.3514 -73.5172 36° Northeast 396 456 28,200 1,260 Climbing Boston Center
09:51PM 40.4603 -73.4142 36° Northeast 402 463 29,400 1,080 Climbing Boston Center
09:52PM 40.5536 -73.3236 36° Northeast 416 479 30,400 780 Climbing Boston Center
09:53PM 40.6467 -73.2328 37° Northeast 417 480 31,000 240 Climbing Boston Center
09:54PM 40.7383 -73.1450 36° Northeast 419 482 31,000  Level Boston Center
09:55PM 40.8428 -73.0408 37° Northeast 420 483 31,000  Level Boston Center
09:56PM 40.9367 -72.9514 36° Northeast 420 483 31,000  Level Boston Center
09:57PM 41.0311 -72.8583 37° Northeast 422 486 31,000  Level Boston Center
09:58PM 41.1244 -72.7653 37° Northeast 422 486 31,000  Level Boston Center
09:59PM 41.2161 -72.6733 37° Northeast 417 480 31,000  Level Boston Center
10:00PM 41.3019 -72.5494 47° Northeast 430 495 31,000  Level Boston Center
10:01PM 41.3764 -72.4250 51° Northeast 430 495 31,000  Level Boston Center
10:02PM 41.4622 -72.3181 43° Northeast 421 484 31,000  Level Boston Center
10:03PM 41.5458 -72.2369 36° Northeast 415 478 31,000  Level Boston Center
10:04PM 41.6550 -72.1292 36° Northeast 412 474 31,000  Level Boston Center
10:05PM 41.7469 -72.0392 36° Northeast 410 472 31,000  Level Boston Center
10:06PM 41.8389 -71.9492 36° Northeast 410 472 31,000  Level Boston Center
10:07PM 41.9300 -71.8603 36° Northeast 410 472 31,000  Level Boston Center
10:08PM 42.0206 -71.7686 37° Northeast 410 472 31,000  Level Boston Center
10:09PM 42.1122 -71.6769 37° Northeast 410 472 31,000  Level Boston Center
10:10PM 42.2031 -71.5867 36° Northeast 410 472 31,000  Level Boston Center
10:11PM 42.2947 -71.4944 37° Northeast 410 472 31,000  Level Boston Center
10:12PM 42.4011 -71.3861 37° Northeast 410 472 31,000  Level Boston Center
10:13PM 42.4939 -71.2933 36° Northeast 411 473 31,000  Level Boston Center
10:14PM 42.5858 -71.1994 37° Northeast 411 473 31,000  Level Boston Center
10:15PM 42.6775 -71.1042 37° Northeast 412 474 31,000  Level Boston Center
10:16PM 42.7703 -71.0114 36° Northeast 412 474 31,000  Level Boston Center
10:17PM 42.8617 -70.9167 37° Northeast 412 474 31,000  Level Boston Center
10:18PM 42.9544 -70.8203 37° Northeast 417 480 31,000  Level Boston Center
10:19PM 43.0461 -70.7247 37° Northeast 417 480 31,000  Level Boston Center
10:20PM 43.1383 -70.6297 37° Northeast 415 478 31,000  Level Boston Center
10:21PM 43.2286 -70.5358 37° Northeast 414 476 31,000  Level Boston Center
10:22PM 43.3200 -70.4433 36° Northeast 408 470 31,000  Level Boston Center
10:23PM 43.4136 -70.3411 38° Northeast 409 471 31,000  Level Boston Center
10:24PM 43.5042 -70.2436 38° Northeast 409 471 31,000 -120 Level Boston Center
10:25PM 43.5947 -70.1497 37° Northeast 409 471 30,800 -1,140 Descending Boston Center
10:26PM 43.6850 -70.0569 37° Northeast 406 467 28,700 -2,040 Descending Boston Center
10:27PM 43.7692 -69.9653 38° Northeast 389 448 26,700 -1,980 Descending Boston Center
10:28PM 43.8531 -69.8756 38° Northeast 382 440 24,700 -2,220 Descending Boston Center
10:29PM 43.9503 -69.7714 38° Northeast 366 421 22,300 -2,340 Descending Boston Center
10:30PM 44.0292 -69.6850 38° Northeast 362 417 20,100 -2,040 Descending Boston Center
10:31PM 44.1069 -69.6014 38° Northeast 351 404 18,300 -1,680 Descending Boston Center
10:32PM 44.1797 -69.5219 38° Northeast 339 390 16,700 -1,620 Descending Boston Center
10:33PM 44.2511 -69.4444 38° Northeast 328 377 15,000 -1,680 Descending Boston Center
10:34PM 44.3250 -69.3786 33° Northeast 316 364 13,300 -1,680 Descending Boston Center
10:35PM 44.4014 -69.3206 28° Northeast 314 361 11,700 -1,500 Descending Boston Center
10:37PM 44.4728 -69.2644 29° Northeast 297 342 10,300 -1,440 Descending Boston Center
10:38PM 44.5403 -69.2117 29° Northeast 283 326 8,800 -1,560 Descending Boston Center
10:39PM 44.6064 -69.1608 29° Northeast 277 319 7,200 -1,680 Descending Boston Center
10:40PM 44.6686 -69.1111 30° Northeast 264 304 5,500 -1,800 Descending Boston Center
10:41PM 44.7308 -69.0631 29° Northeast 258 297 3,600 -1,260 Descending Boston Center
10:42PM 44.7917 -69.0153 29° Northeast 255 293 3,000 -780 Descending Boston Center
10:43PM 44.8417 -68.9700 33° Northeast 187 215 2,100 -840 Descending Boston Center
10:44PM 44.8594 -68.9175 64° Northeast 156 180 1,400 -720 Descending Boston Center
10:45PM 44.8381 -68.8719 123° Southeast 144 166 700 -660 Descending Boston Center
10:46PM 44.8161 -68.8392 133° Southeast 143 165 100 -600 Descending Boston Center